createdAt,value
2024-01-24T00:02:14.301Z,23.88
2024-01-24T00:04:37.804Z,18.92
2024-01-24T00:07:01.318Z,30.50
2024-01-24T00:09:24.998Z,33.58
2024-01-24T00:11:48.631Z,26.23
2024-01-24T00:14:12.391Z,23.20
2024-01-24T00:16:35.903Z,16.70
2024-01-24T00:19:01.099Z,26.20
2024-01-24T00:21:24.675Z,30.05
2024-01-24T00:23:48.242Z,17.17
2024-01-24T00:26:11.655Z,21.05
2024-01-24T00:28:35.165Z,15.40
2024-01-24T00:30:58.592Z,17.98
2024-01-24T00:33:22.760Z,12.55
2024-01-24T00:35:47.544Z,20.35
2024-01-24T00:38:10.971Z,18.13
2024-01-24T00:40:34.674Z,16.10
2024-01-24T00:42:58.134Z,16.23
2024-01-24T00:45:22.750Z,16.00
2024-01-24T00:47:46.543Z,23.33
2024-01-24T00:50:11.298Z,14.13
2024-01-24T00:52:36.211Z,15.02
2024-01-24T00:54:59.714Z,23.85
2024-01-24T00:57:26.727Z,13.85
2024-01-24T00:59:50.193Z,15.35
2024-01-24T01:02:14.052Z,15.35
2024-01-24T01:04:37.619Z,12.98
2024-01-24T01:07:01.025Z,13.25
2024-01-24T01:09:25.887Z,13.45
2024-01-24T01:11:49.246Z,14.07
2024-01-24T01:14:12.934Z,16.92
2024-01-24T01:16:36.815Z,10.05
2024-01-24T01:19:00.426Z,13.35
2024-01-24T01:21:23.907Z,9.98
2024-01-24T01:23:47.682Z,8.85
2024-01-24T01:26:12.521Z,16.67
2024-01-24T01:28:36.824Z,13.40
2024-01-24T01:31:00.378Z,10.90
2024-01-24T01:33:23.964Z,9.23
2024-01-24T01:35:47.466Z,12.90
2024-01-24T01:38:11.057Z,7.35
2024-01-24T01:40:34.527Z,10.13
2024-01-24T01:42:59.418Z,6.63
2024-01-24T01:45:24.416Z,11.18
2024-01-24T01:47:52.845Z,7.55
2024-01-24T01:50:16.795Z,9.10
2024-01-24T01:52:42.408Z,10.05
2024-01-24T01:55:07.387Z,11.27
2024-01-24T01:57:31.073Z,11.45
2024-01-24T01:59:55.901Z,10.77
2024-01-24T02:02:19.348Z,9.75
2024-01-24T02:04:43.128Z,11.93
2024-01-24T02:07:06.853Z,12.20
2024-01-24T02:09:30.768Z,5.78
2024-01-24T02:11:54.298Z,6.78
2024-01-24T02:14:18.128Z,10.85
2024-01-24T02:16:43.644Z,8.60
2024-01-24T02:19:07.657Z,7.35
2024-01-24T02:21:32.425Z,10.20
2024-01-24T02:23:58.061Z,5.40
2024-01-24T02:26:22.881Z,6.50
2024-01-24T02:28:46.423Z,3.20
2024-01-24T02:31:10.104Z,4.28
2024-01-24T02:33:34.150Z,4.38
2024-01-24T02:35:57.648Z,3.03
2024-01-24T02:38:21.524Z,6.22
2024-01-24T02:40:45.043Z,5.22
2024-01-24T02:43:09.852Z,2.20
2024-01-24T02:45:33.389Z,1.65
2024-01-24T02:47:57.022Z,3.03
2024-01-24T02:50:20.475Z,4.43
2024-01-24T02:52:44.048Z,4.20
2024-01-24T02:55:09.457Z,3.72
2024-01-24T02:57:32.898Z,4.13
2024-01-24T02:59:57.738Z,4.20
2024-01-24T03:02:21.200Z,3.53
2024-01-24T03:04:44.800Z,2.45
2024-01-24T03:07:08.377Z,1.75
2024-01-24T03:09:32.345Z,2.03
2024-01-24T03:11:55.939Z,3.25
2024-01-24T03:14:19.290Z,2.75
2024-01-24T03:16:44.136Z,2.60
2024-01-24T03:19:08.582Z,5.15
2024-01-24T03:21:32.141Z,2.00
2024-01-24T03:23:55.551Z,3.35
2024-01-24T03:26:18.986Z,2.13
2024-01-24T03:28:42.659Z,2.65
2024-01-24T03:31:06.265Z,4.28
2024-01-24T03:33:31.583Z,1.80
2024-01-24T03:35:54.996Z,4.38
2024-01-24T03:38:18.548Z,2.25
2024-01-24T03:40:42.188Z,1.65
2024-01-24T03:43:07.758Z,3.50
2024-01-24T03:45:31.206Z,1.80
2024-01-24T03:47:54.718Z,2.45
2024-01-24T03:50:19.665Z,2.03
2024-01-24T03:52:43.583Z,4.45
2024-01-24T03:55:07.850Z,2.58
2024-01-24T03:57:31.359Z,3.33
2024-01-24T03:59:55.036Z,2.53
2024-01-24T04:02:18.466Z,1.52
2024-01-24T04:04:42.031Z,2.80
2024-01-24T04:07:06.934Z,2.00
2024-01-24T04:09:30.484Z,3.03
2024-01-24T04:11:53.910Z,2.42
2024-01-24T04:14:17.282Z,1.95
2024-01-24T04:16:41.519Z,3.17
2024-01-24T04:19:05.183Z,2.00
2024-01-24T04:21:29.233Z,2.90
2024-01-24T04:23:54.295Z,3.40
2024-01-24T04:26:21.964Z,3.92
2024-01-24T04:28:45.648Z,3.72
2024-01-24T04:31:09.448Z,5.05
2024-01-24T04:33:33.996Z,2.95
2024-01-24T04:35:57.595Z,4.03
2024-01-24T04:38:20.998Z,3.22
2024-01-24T04:40:46.286Z,3.97
2024-01-24T04:43:10.043Z,4.80
2024-01-24T04:45:33.613Z,7.72
2024-01-24T04:47:57.157Z,4.00
2024-01-24T04:50:20.749Z,4.85
2024-01-24T04:52:44.447Z,3.72
2024-01-24T04:55:12.475Z,2.78
2024-01-24T04:57:37.790Z,5.22
2024-01-24T05:00:02.975Z,5.32
2024-01-24T05:02:26.767Z,5.32
2024-01-24T05:04:50.518Z,2.55
2024-01-24T05:07:14.232Z,3.45
2024-01-24T05:09:37.933Z,3.83
2024-01-24T05:12:01.491Z,4.70
2024-01-24T05:14:26.296Z,9.00
2024-01-24T05:16:50.494Z,7.18
2024-01-24T05:19:14.172Z,11.82
2024-01-24T05:21:43.216Z,9.30
2024-01-24T05:24:07.261Z,10.88
2024-01-24T05:30:35.942Z,11.73
2024-01-24T05:33:01.741Z,15.20
2024-01-24T05:35:25.192Z,8.13
2024-01-24T05:37:48.900Z,8.85
2024-01-24T05:40:14.335Z,13.52
2024-01-24T05:42:39.092Z,10.10
2024-01-24T05:45:03.658Z,10.05
2024-01-24T05:47:28.486Z,10.00
2024-01-24T05:49:52.229Z,11.45
2024-01-24T05:52:15.646Z,11.50
2024-01-24T05:54:39.068Z,12.13
2024-01-24T05:57:02.597Z,15.48
2024-01-24T05:59:26.581Z,9.93
2024-01-24T06:01:50.807Z,11.85
2024-01-24T06:04:15.941Z,12.50
2024-01-24T06:06:39.764Z,16.13
2024-01-24T06:09:03.480Z,12.38
2024-01-24T06:11:27.066Z,17.75
2024-01-24T06:13:50.604Z,18.08
2024-01-24T06:16:14.142Z,15.13
2024-01-24T06:18:37.658Z,16.48
2024-01-24T06:21:03.099Z,22.05
2024-01-24T06:23:26.677Z,21.00
2024-01-24T06:25:50.401Z,21.70
2024-01-24T06:28:14.480Z,20.98
2024-01-24T06:30:38.166Z,23.55
2024-01-24T06:33:04.625Z,29.92
2024-01-24T06:35:28.461Z,19.48
2024-01-24T06:37:53.697Z,19.13
2024-01-24T06:40:19.267Z,16.15
2024-01-24T06:42:42.650Z,19.98
2024-01-24T06:45:08.265Z,22.33
2024-01-24T06:47:31.628Z,15.10
2024-01-24T06:49:55.052Z,25.55
2024-01-24T06:52:18.741Z,34.72
2024-01-24T06:54:43.680Z,17.45
2024-01-24T06:57:07.209Z,26.83
2024-01-24T06:59:30.603Z,19.05
2024-01-24T07:01:54.872Z,26.98
2024-01-24T07:04:18.550Z,32.08
2024-01-24T07:06:42.169Z,25.15
2024-01-24T07:09:06.557Z,21.17
2024-01-24T07:11:31.379Z,27.13
2024-01-24T07:13:55.160Z,23.77
2024-01-24T07:16:18.555Z,21.33
2024-01-24T07:18:42.162Z,21.13
2024-01-24T07:21:07.795Z,22.75
2024-01-24T07:23:31.368Z,34.08
2024-01-24T07:25:55.212Z,27.60
2024-01-24T07:28:38.103Z,21.73
2024-01-24T07:31:02.054Z,28.42
2024-01-24T07:33:27.523Z,36.65
2024-01-24T07:35:51.121Z,21.80
2024-01-24T07:38:14.707Z,26.70
2024-01-24T07:40:38.260Z,40.42
2024-01-24T07:43:02.054Z,27.90
2024-01-24T07:45:27.352Z,30.17
2024-01-24T07:47:51.234Z,34.92
2024-01-24T07:50:15.431Z,35.75
2024-01-24T07:52:42.152Z,28.33
2024-01-24T07:57:30.555Z,33.20
2024-01-24T07:59:54.187Z,28.50
2024-01-24T08:02:19.176Z,26.30
2024-01-24T08:04:42.702Z,23.15
2024-01-24T08:07:06.580Z,34.10
2024-01-24T08:09:30.282Z,31.10
2024-01-24T08:11:54.693Z,31.23
2024-01-24T08:14:19.927Z,30.00
2024-01-24T08:17:01.980Z,28.00
2024-01-24T08:19:27.142Z,37.05
2024-01-24T08:21:50.901Z,35.47
2024-01-24T08:24:14.992Z,31.08
2024-01-24T08:26:38.462Z,30.65
2024-01-24T08:29:02.929Z,37.28
2024-01-24T08:31:26.698Z,32.55
2024-01-24T08:33:52.373Z,37.13
2024-01-24T08:36:17.598Z,36.58
2024-01-24T08:38:41.104Z,36.40
2024-01-24T08:41:05.302Z,40.67
2024-01-24T08:43:28.866Z,37.22
2024-01-24T08:45:53.004Z,33.40
2024-01-24T08:48:16.783Z,30.40
2024-01-24T08:50:41.223Z,41.67
2024-01-24T08:53:13.654Z,39.40
2024-01-24T08:55:37.367Z,40.33
2024-01-24T08:58:01.028Z,41.05
2024-01-24T09:00:25.154Z,35.10
2024-01-24T09:02:49.910Z,33.75
2024-01-24T09:05:14.111Z,40.50
2024-01-24T09:07:37.768Z,33.38
2024-01-24T09:10:04.362Z,37.63
2024-01-24T09:12:28.003Z,44.50
2024-01-24T09:14:51.979Z,26.52
2024-01-24T09:17:16.317Z,42.65
2024-01-24T09:19:43.121Z,33.38
2024-01-24T09:22:10.549Z,29.27
2024-01-24T09:24:42.994Z,33.92
2024-01-24T09:27:08.489Z,39.85
2024-01-24T09:29:32.006Z,36.17
2024-01-24T09:31:55.479Z,36.00
2024-01-24T09:34:19.167Z,28.67
2024-01-24T09:36:43.263Z,41.50
2024-01-24T09:39:10.277Z,38.45
2024-01-24T09:41:42.352Z,34.17
2024-01-24T09:44:09.405Z,47.58
2024-01-24T09:46:37.023Z,35.10
2024-01-24T09:49:02.818Z,40.90
2024-01-24T09:51:27.066Z,41.50
2024-01-24T09:53:52.169Z,37.55
2024-01-24T09:56:28.147Z,39.55
2024-01-24T09:59:03.161Z,38.78
2024-01-24T10:01:39.909Z,29.88
2024-01-24T10:04:04.598Z,39.45
2024-01-24T10:06:28.985Z,39.38
2024-01-24T10:08:53.484Z,37.55
2024-01-24T10:11:17.200Z,37.38
2024-01-24T10:13:40.625Z,42.60
2024-01-24T10:16:09.720Z,37.83
2024-01-24T10:18:35.671Z,38.30
2024-01-24T10:21:02.633Z,33.10
2024-01-24T10:23:26.627Z,33.35
2024-01-24T10:25:51.048Z,40.90
2024-01-24T10:28:18.003Z,32.97
2024-01-24T10:30:43.283Z,36.35
2024-01-24T10:33:07.276Z,38.13
2024-01-24T10:35:32.855Z,30.75
2024-01-24T10:37:57.798Z,27.95
2024-01-24T10:40:22.735Z,34.55
2024-01-24T10:42:46.989Z,30.55
2024-01-24T10:45:11.725Z,31.77
2024-01-24T10:47:35.910Z,41.22
2024-01-24T10:50:04.969Z,40.90
2024-01-24T10:52:30.468Z,45.97
2024-01-24T10:54:55.430Z,37.88
2024-01-24T10:57:21.133Z,39.17
2024-01-24T10:59:46.127Z,32.70
2024-01-24T11:02:11.395Z,38.85
2024-01-24T11:04:35.576Z,32.08
2024-01-24T11:07:05.927Z,31.77
2024-01-24T11:09:39.319Z,33.40
2024-01-24T11:12:03.930Z,30.30
2024-01-24T11:14:31.678Z,31.05
2024-01-24T11:16:55.497Z,23.40
2024-01-24T11:19:24.201Z,35.40
2024-01-24T11:21:48.476Z,48.78
2024-01-24T11:24:12.025Z,28.95
2024-01-24T11:26:50.154Z,38.05
2024-01-24T11:29:15.647Z,29.83
2024-01-24T11:31:39.933Z,32.25
2024-01-24T11:34:08.606Z,31.55
2024-01-24T11:36:32.399Z,33.38
2024-01-24T11:38:57.396Z,25.95
2024-01-24T11:41:25.185Z,41.70
2024-01-24T11:43:50.175Z,34.65
2024-01-24T11:46:14.128Z,27.15
2024-01-24T11:48:39.737Z,45.60
2024-01-24T11:51:06.370Z,38.53
2024-01-24T11:53:30.544Z,30.13
2024-01-24T11:55:56.633Z,32.45
2024-01-24T11:59:15.585Z,44.75
2024-01-24T12:01:40.751Z,35.80
2024-01-24T12:04:05.328Z,35.67
2024-01-24T12:06:32.723Z,34.55
2024-01-24T12:08:58.309Z,34.08
2024-01-24T12:11:22.573Z,37.70
2024-01-24T12:13:47.330Z,29.80
2024-01-24T12:16:11.314Z,31.98
2024-01-24T12:18:37.313Z,30.70
2024-01-24T12:21:03.081Z,37.00
2024-01-24T12:23:27.050Z,39.58
2024-01-24T12:25:51.092Z,32.40
2024-01-24T12:28:16.204Z,27.73
2024-01-24T12:30:46.618Z,30.95
2024-01-24T12:33:10.458Z,53.30
2024-01-24T12:35:35.459Z,33.42
2024-01-24T12:38:00.820Z,31.27
2024-01-24T12:40:24.771Z,38.45
2024-01-24T12:42:48.447Z,34.40
2024-01-24T12:45:13.573Z,38.70
2024-01-24T12:47:38.297Z,30.35
2024-01-24T12:50:03.189Z,35.22
2024-01-24T12:52:31.649Z,30.53
2024-01-24T12:54:55.278Z,30.17
2024-01-24T12:57:19.830Z,32.70
2024-01-24T12:59:43.421Z,33.28
2024-01-24T13:02:10.181Z,26.42
2024-01-24T13:04:34.554Z,34.28
2024-01-24T13:06:58.352Z,28.83
2024-01-24T13:09:23.305Z,32.05
2024-01-24T13:11:47.125Z,35.63
2024-01-24T13:14:10.739Z,30.20
2024-01-24T13:16:34.467Z,23.33
2024-01-24T13:18:58.148Z,39.65
2024-01-24T13:21:21.946Z,31.75
2024-01-24T13:23:45.656Z,29.30
2024-01-24T13:26:10.817Z,30.38
2024-01-24T13:28:34.467Z,42.38
2024-01-24T13:30:58.019Z,30.40
2024-01-24T13:33:22.087Z,29.05
2024-01-24T13:35:46.408Z,32.28
2024-01-24T13:38:10.039Z,28.30
2024-01-24T13:40:33.671Z,26.05
2024-01-24T13:42:58.753Z,31.95
2024-01-24T13:45:23.270Z,34.60
2024-01-24T13:47:48.186Z,28.42
2024-01-24T13:50:12.948Z,29.38
2024-01-24T13:52:36.605Z,33.50
2024-01-24T13:55:00.301Z,32.33
2024-01-24T13:57:24.110Z,28.95
2024-01-24T13:59:49.699Z,28.00
2024-01-24T14:02:16.311Z,34.78
2024-01-24T14:04:40.537Z,27.88
2024-01-24T14:07:04.507Z,39.38
2024-01-24T14:09:29.674Z,25.58
2024-01-24T14:11:55.828Z,28.73
2024-01-24T14:14:19.602Z,29.35
2024-01-24T14:16:44.463Z,27.02
2024-01-24T14:19:08.023Z,33.03
2024-01-24T14:21:33.054Z,28.25
2024-01-24T14:23:58.241Z,30.42
2024-01-24T14:26:23.059Z,27.08
2024-01-24T14:28:46.618Z,26.23
2024-01-24T14:31:10.142Z,30.98
2024-01-24T14:33:35.632Z,30.45
2024-01-24T14:35:59.613Z,27.70
2024-01-24T14:38:23.346Z,30.67
2024-01-24T14:40:46.942Z,35.38
2024-01-24T14:43:10.751Z,34.63
2024-01-24T14:45:34.604Z,31.27
2024-01-24T14:48:00.742Z,35.53
2024-01-24T14:50:26.457Z,27.30
2024-01-24T14:52:50.006Z,29.25
2024-01-24T14:55:13.645Z,35.83
2024-01-24T14:57:37.732Z,30.00
2024-01-24T15:00:01.836Z,34.08
2024-01-24T15:02:25.506Z,22.10
2024-01-24T15:04:51.688Z,31.58
2024-01-24T15:07:16.838Z,29.13
2024-01-24T15:09:41.101Z,35.58
2024-01-24T15:12:05.615Z,25.75
2024-01-24T15:14:33.175Z,33.50
2024-01-24T15:17:04.478Z,24.35
2024-01-24T15:19:30.120Z,26.85
2024-01-24T15:21:54.132Z,24.40
2024-01-24T15:24:19.662Z,29.83
2024-01-24T15:26:43.109Z,27.65
2024-01-24T15:29:07.152Z,25.70
2024-01-24T15:31:30.705Z,28.80
2024-01-24T15:33:54.086Z,23.40
2024-01-24T15:36:17.591Z,30.85
2024-01-24T15:38:41.113Z,21.90
2024-01-24T15:41:06.478Z,28.48
2024-01-24T15:43:30.306Z,28.50
2024-01-24T15:45:54.195Z,39.33
2024-01-24T15:48:17.947Z,28.92
2024-01-24T15:50:41.707Z,30.52
2024-01-24T15:53:05.994Z,27.05
2024-01-24T15:55:29.519Z,30.73
2024-01-24T15:57:54.442Z,32.63
2024-01-24T16:00:20.901Z,34.15
2024-01-24T16:02:44.670Z,31.65
2024-01-24T16:05:18.873Z,33.88
2024-01-24T16:07:42.530Z,33.33
2024-01-24T16:10:07.355Z,39.08
2024-01-24T16:12:31.074Z,30.60
2024-01-24T16:14:56.085Z,30.10
2024-01-24T16:17:20.827Z,32.65
2024-01-24T16:19:45.412Z,29.52
2024-01-24T16:22:10.315Z,44.13
2024-01-24T16:24:34.145Z,47.92
2024-01-24T16:26:57.975Z,40.17
2024-01-24T16:29:21.429Z,33.88
2024-01-24T16:31:46.858Z,32.13
2024-01-24T16:34:10.580Z,33.85
2024-01-24T16:36:34.417Z,30.48
2024-01-24T16:38:58.584Z,30.98
2024-01-24T16:41:22.273Z,29.35
2024-01-24T16:43:47.676Z,34.70
2024-01-24T16:46:11.265Z,28.80
2024-01-24T16:48:36.258Z,24.38
2024-01-24T16:51:00.282Z,37.33
2024-01-24T16:53:24.030Z,31.55
2024-01-24T16:55:47.568Z,32.22
2024-01-24T16:58:11.563Z,38.60
2024-01-24T17:00:35.464Z,28.73
2024-01-24T17:02:59.204Z,31.77
2024-01-24T17:05:24.123Z,24.40
2024-01-24T17:07:47.618Z,31.10
2024-01-24T17:10:12.306Z,37.78
2024-01-24T17:12:36.068Z,37.45
2024-01-24T17:15:00.313Z,33.47
2024-01-24T17:17:23.798Z,29.50
2024-01-24T17:19:47.463Z,38.65
2024-01-24T17:22:12.360Z,24.98
2024-01-24T17:24:36.561Z,40.50
2024-01-24T17:27:00.345Z,33.00
2024-01-24T17:29:24.012Z,35.50
2024-01-24T17:31:49.258Z,35.80
2024-01-24T17:34:14.695Z,29.52
2024-01-24T17:36:38.522Z,38.13
2024-01-24T17:39:05.456Z,33.45
2024-01-24T17:41:30.580Z,33.15
2024-01-24T17:43:54.366Z,34.38
2024-01-24T17:46:17.967Z,34.25
2024-01-24T17:48:41.866Z,29.65
2024-01-24T17:51:06.436Z,38.20
2024-01-24T17:53:30.919Z,33.85
2024-01-24T17:55:55.663Z,26.48
2024-01-24T17:58:19.083Z,31.05
2024-01-24T18:00:42.728Z,29.13
2024-01-24T18:03:06.702Z,40.22
2024-01-24T18:05:30.293Z,42.40
2024-01-24T18:07:55.714Z,34.60
2024-01-24T18:10:19.855Z,34.15
2024-01-24T18:12:44.820Z,33.10
2024-01-24T18:15:09.234Z,26.13
2024-01-24T18:17:32.682Z,30.88
2024-01-24T18:19:56.329Z,44.22
2024-01-24T18:22:19.920Z,40.88
2024-01-24T18:24:43.604Z,30.63
2024-01-24T18:27:07.395Z,33.03
2024-01-24T18:29:32.181Z,40.08
2024-01-24T18:31:55.671Z,36.65
2024-01-24T18:34:38.112Z,40.00
2024-01-24T18:37:02.066Z,31.35
2024-01-24T18:39:25.717Z,33.03
2024-01-24T18:41:49.605Z,45.40
2024-01-24T18:44:14.452Z,31.95
2024-01-24T18:46:39.579Z,36.38
2024-01-24T18:49:04.849Z,31.80
2024-01-24T18:51:29.058Z,34.47
2024-01-24T18:53:52.795Z,36.03
2024-01-24T18:56:16.345Z,42.97
2024-01-24T18:58:40.436Z,31.88
2024-01-24T19:01:05.393Z,40.50
2024-01-24T19:03:30.372Z,35.45
2024-01-24T19:05:54.636Z,35.97
2024-01-24T19:08:18.296Z,35.78
2024-01-24T19:10:41.831Z,39.88
2024-01-24T19:13:06.899Z,34.85
2024-01-24T19:15:30.573Z,27.70
2024-01-24T19:17:54.105Z,37.58
2024-01-24T19:20:19.418Z,40.13
2024-01-24T19:22:42.953Z,28.58
2024-01-24T19:25:09.122Z,29.35
2024-01-24T19:27:32.965Z,45.47
2024-01-24T19:29:56.770Z,32.67
2024-01-24T19:32:20.411Z,41.15
2024-01-24T19:34:52.516Z,32.20
2024-01-24T19:37:17.960Z,33.88
2024-01-24T19:39:41.769Z,33.70
2024-01-24T19:42:06.252Z,27.10
2024-01-24T19:44:29.996Z,34.42
2024-01-24T19:46:57.002Z,39.05
2024-01-24T19:49:21.120Z,34.45
2024-01-24T19:51:44.951Z,37.78
2024-01-24T19:54:11.704Z,46.72
2024-01-24T19:56:35.513Z,34.35
2024-01-24T19:59:00.408Z,38.10
2024-01-24T20:01:25.107Z,39.47
2024-01-24T20:03:49.129Z,42.22
2024-01-24T20:06:12.744Z,39.33
2024-01-24T20:08:36.499Z,39.00
2024-01-24T20:11:01.858Z,30.88
2024-01-24T20:13:25.462Z,39.00
2024-01-24T20:15:49.315Z,30.55
2024-01-24T20:18:12.861Z,38.88
2024-01-24T20:20:36.832Z,40.85
2024-01-24T20:23:01.760Z,33.67
2024-01-24T20:25:25.787Z,40.60
2024-01-24T20:27:51.068Z,33.53
2024-01-24T20:30:15.854Z,31.77
2024-01-24T20:32:45.442Z,43.67
2024-01-24T20:35:16.609Z,39.70
2024-01-24T20:37:40.266Z,41.00
2024-01-24T20:40:04.902Z,45.15
2024-01-24T20:42:29.955Z,51.17
2024-01-24T20:44:55.417Z,44.13
2024-01-24T20:47:19.010Z,46.90
2024-01-24T20:49:43.049Z,52.00
2024-01-24T20:52:07.767Z,56.15
2024-01-24T20:54:31.665Z,51.75
2024-01-24T20:56:55.303Z,44.20
2024-01-24T20:59:19.678Z,48.42
2024-01-24T21:01:45.498Z,51.60
2024-01-24T21:04:09.849Z,49.47
2024-01-24T21:06:33.863Z,38.03
2024-01-24T21:08:57.317Z,38.40
2024-01-24T21:11:20.874Z,41.90
2024-01-24T21:13:44.342Z,41.28
2024-01-24T21:16:07.820Z,54.42
2024-01-24T21:18:32.623Z,58.92
2024-01-24T21:20:56.210Z,51.20
2024-01-24T21:23:21.136Z,55.05
2024-01-24T21:25:45.929Z,44.17
2024-01-24T21:28:09.463Z,48.00
2024-01-24T21:30:32.893Z,53.15
2024-01-24T21:32:56.529Z,39.53
2024-01-24T21:35:21.438Z,49.20
2024-01-24T21:37:45.044Z,56.45
2024-01-24T21:40:09.957Z,46.53
2024-01-24T21:42:33.438Z,36.90
2024-01-24T21:44:57.096Z,38.38
2024-01-24T21:47:20.856Z,46.97
2024-01-24T21:49:44.392Z,46.45
2024-01-24T21:52:09.450Z,45.50
2024-01-24T21:54:32.962Z,47.75
2024-01-24T21:56:56.452Z,44.22
2024-01-24T21:59:19.948Z,40.55
2024-01-24T22:01:43.959Z,38.15
2024-01-24T22:04:07.952Z,48.42
2024-01-24T22:06:32.073Z,45.55
2024-01-24T22:08:58.570Z,42.85
2024-01-24T22:11:22.205Z,36.80
2024-01-24T22:13:46.291Z,38.28
2024-01-24T22:16:09.814Z,44.80
2024-01-24T22:18:40.648Z,43.05
2024-01-24T22:21:10.016Z,44.85
2024-01-24T22:23:33.654Z,53.80
2024-01-24T22:25:58.455Z,50.22
2024-01-24T22:28:21.991Z,57.40
2024-01-24T22:30:45.439Z,45.85
2024-01-24T22:33:09.011Z,39.05
2024-01-24T22:35:32.665Z,43.33
2024-01-24T22:37:58.223Z,53.17
2024-01-24T22:40:22.110Z,51.75
2024-01-24T22:42:47.278Z,55.45
2024-01-24T22:45:14.590Z,53.22
2024-01-24T22:47:38.497Z,40.60
2024-01-24T22:50:02.309Z,45.88
2024-01-24T22:52:26.220Z,46.15
2024-01-24T22:54:51.467Z,38.08
2024-01-24T22:57:15.832Z,39.33
2024-01-24T22:59:40.687Z,57.40
2024-01-24T23:02:04.405Z,43.42
2024-01-24T23:04:28.482Z,41.38
2024-01-24T23:06:51.997Z,51.33
2024-01-24T23:09:16.446Z,50.75
2024-01-24T23:11:40.025Z,50.80
2024-01-24T23:14:03.741Z,46.78
2024-01-24T23:16:28.766Z,40.85
2024-01-24T23:18:52.334Z,43.50
2024-01-24T23:21:15.902Z,38.95
2024-01-24T23:23:41.254Z,39.42
2024-01-24T23:26:04.951Z,46.88
2024-01-24T23:28:29.130Z,51.45
2024-01-24T23:30:53.278Z,52.33
2024-01-24T23:33:18.275Z,44.30
2024-01-24T23:35:41.820Z,60.33
2024-01-24T23:38:05.244Z,60.22
2024-01-24T23:40:28.798Z,40.30
2024-01-24T23:42:52.366Z,53.75
2024-01-24T23:45:15.900Z,46.15
2024-01-24T23:47:39.488Z,45.28
2024-01-24T23:50:05.192Z,67.80
2024-01-24T23:52:28.863Z,43.17
2024-01-24T23:54:52.365Z,47.10
2024-01-24T23:57:15.937Z,42.00
2024-01-24T23:59:39.381Z,45.15
